Airport details for: EKBI (Denmark)

Metar

EKBI 231620Z AUTO 27014KT 9999NDV FEW048/// SCT091/// BKN100/// 14/10 Q1014

General details

ICAO: EKBI
IATA: BLL
Name (city): Billund
Major:
Country: Denmark
vACC: VATSIM Scandinavia
Description:

Billund Airport serves as one of Denmarks busiest cargo airports, but also offer charter and regular flights. The airport offers one runway, big and strong enough to handle a Boeing 747. 

Big airlines such as Ryanair, British Airways, KLM, Thomas Cook and SAS operates in and out of Billund on a daily basis.

The average handling of passengers is around 2 mio per year in Billund. 

Billund Airport is the main airport for international traffic, for people living in the western part of Denmark. 

Scenery links:
FS9 scenery: Download
FSX/P3D scenery: Download
XP scenery:
Elevation: 247 ft.
Transition altitude: 3000 ft.
MSA: 10100 ft.
Latitude: 55.740322
Longitude: 9.151778
EKBI Charts
EKBI Notams
EKBI Online stations

Runways

Number Course Length Elevation Lat Lon ILS ILS freq ILS FAC GP
09 86° 10171ft / 3100 m 215ft 55.739789 9.134817 111.7 86° 3.0°
27 266° 10171ft / 3100 m 244ft 55.741167 9.179333 110.7 266° 3.0°